createdAt,value
2023-11-06T00:00:49.680Z,100.00
2023-11-06T00:03:17.220Z,100.00
2023-11-06T00:05:44.719Z,100.00
2023-11-06T00:08:12.164Z,100.00
2023-11-06T00:10:39.444Z,98.00
2023-11-06T00:13:06.757Z,97.50
2023-11-06T00:15:34.047Z,95.39
2023-11-06T00:18:01.408Z,96.85
2023-11-06T00:20:28.772Z,93.81
2023-11-06T00:22:56.203Z,96.46
2023-11-06T00:25:23.508Z,98.48
2023-11-06T00:27:51.731Z,99.27
2023-11-06T00:30:19.143Z,99.46
2023-11-06T00:32:46.515Z,98.59
2023-11-06T00:35:14.997Z,100.00
2023-11-06T00:37:42.798Z,100.00
2023-11-06T00:40:10.472Z,100.00
2023-11-06T00:42:37.815Z,100.00
2023-11-06T00:45:05.719Z,100.00
2023-11-06T00:47:33.054Z,100.00
2023-11-06T00:50:00.631Z,100.00
2023-11-06T00:52:28.117Z,100.00
2023-11-06T00:54:56.038Z,100.00
2023-11-06T00:57:23.347Z,100.00
2023-11-06T00:59:50.623Z,100.00
2023-11-06T01:02:18.014Z,100.00
2023-11-06T01:04:45.805Z,100.00
2023-11-06T01:07:13.275Z,100.00
2023-11-06T01:09:40.552Z,96.95
2023-11-06T01:12:07.940Z,88.79
2023-11-06T01:14:35.258Z,84.12
2023-11-06T01:17:02.696Z,81.05
2023-11-06T01:19:30.518Z,80.52
2023-11-06T01:21:57.799Z,80.68
2023-11-06T01:24:25.719Z,80.20
2023-11-06T01:26:52.997Z,80.29
2023-11-06T01:29:20.316Z,83.51
2023-11-06T01:31:47.735Z,79.50
2023-11-06T01:34:15.373Z,78.25
2023-11-06T01:36:44.942Z,76.45
2023-11-06T01:39:12.722Z,78.07
2023-11-06T01:41:40.307Z,76.67
2023-11-06T01:44:10.733Z,76.53
2023-11-06T01:46:38.100Z,76.39
2023-11-06T01:49:07.277Z,78.72
2023-11-06T01:51:36.755Z,76.86
2023-11-06T01:54:04.309Z,75.48
2023-11-06T01:56:34.132Z,76.48
2023-11-06T01:59:02.967Z,75.04
2023-11-06T02:01:31.212Z,73.08
2023-11-06T02:04:00.204Z,72.94
2023-11-06T02:06:31.815Z,73.02
2023-11-06T02:09:01.960Z,73.34
2023-11-06T02:11:29.229Z,72.40
2023-11-06T02:13:56.567Z,73.18
2023-11-06T02:16:23.867Z,73.14
2023-11-06T02:18:51.209Z,73.28
2023-11-06T02:21:20.672Z,74.02
2023-11-06T02:23:48.229Z,74.09
2023-11-06T02:26:15.741Z,74.55
2023-11-06T02:28:43.159Z,72.79
2023-11-06T02:31:10.959Z,73.71
2023-11-06T02:33:39.396Z,71.22
2023-11-06T02:36:08.345Z,71.81
2023-11-06T02:38:36.581Z,70.29
2023-11-06T02:41:04.659Z,70.11
2023-11-06T02:43:31.988Z,69.79
2023-11-06T02:45:59.913Z,69.36
2023-11-06T02:48:27.301Z,70.98
2023-11-06T02:50:54.893Z,71.01
2023-11-06T02:53:22.409Z,71.88
2023-11-06T02:55:49.852Z,71.24
2023-11-06T02:58:17.186Z,71.36
2023-11-06T03:00:44.518Z,69.84
2023-11-06T03:03:11.972Z,68.53
2023-11-06T03:05:39.485Z,68.63
2023-11-06T03:08:06.935Z,68.01
2023-11-06T03:10:34.526Z,67.64
2023-11-06T03:13:01.842Z,67.60
2023-11-06T03:15:29.231Z,68.39
2023-11-06T03:17:56.596Z,69.86
2023-11-06T03:20:24.803Z,68.64
2023-11-06T03:22:52.463Z,68.26
2023-11-06T03:25:20.090Z,67.19
2023-11-06T03:27:49.526Z,68.37
2023-11-06T03:30:17.097Z,68.73
2023-11-06T03:32:44.490Z,68.71
2023-11-06T03:35:11.919Z,68.00
2023-11-06T03:37:39.310Z,68.77
2023-11-06T03:40:07.695Z,68.68
2023-11-06T03:42:35.037Z,67.28
2023-11-06T03:45:02.329Z,66.89
2023-11-06T03:47:29.829Z,65.22
2023-11-06T03:49:57.471Z,65.19
2023-11-06T03:52:24.809Z,64.26
2023-11-06T03:54:52.576Z,63.92
2023-11-06T03:57:19.916Z,62.65
2023-11-06T03:59:47.227Z,63.03
2023-11-06T04:02:14.741Z,63.83
2023-11-06T04:04:42.092Z,63.00
2023-11-06T04:07:09.584Z,64.32
2023-11-06T04:09:36.895Z,63.35
2023-11-06T04:12:04.602Z,63.11
2023-11-06T04:14:31.965Z,63.76
2023-11-06T04:16:59.427Z,62.79
2023-11-06T04:19:29.844Z,63.36
2023-11-06T04:21:57.248Z,63.81
2023-11-06T04:24:24.598Z,63.14
2023-11-06T04:26:51.892Z,63.17
2023-11-06T04:29:19.279Z,63.70
2023-11-06T04:31:46.577Z,62.98
2023-11-06T04:34:13.903Z,63.27
2023-11-06T04:36:41.217Z,63.51
2023-11-06T04:39:11.179Z,63.43
2023-11-06T04:41:39.169Z,64.54
2023-11-06T04:44:06.748Z,63.70
2023-11-06T04:46:34.030Z,64.31
2023-11-06T04:49:01.618Z,64.07
2023-11-06T04:51:30.425Z,64.58
2023-11-06T04:53:57.802Z,65.15
2023-11-06T04:56:25.162Z,65.04
2023-11-06T04:58:52.487Z,65.47
2023-11-06T05:01:19.939Z,64.92
2023-11-06T05:03:47.398Z,65.88
2023-11-06T05:06:14.858Z,65.72
2023-11-06T05:08:42.167Z,66.29
2023-11-06T05:11:09.471Z,65.21
2023-11-06T05:13:36.790Z,65.47
2023-11-06T05:16:05.451Z,65.02
2023-11-06T05:18:32.904Z,65.83
2023-11-06T05:21:00.363Z,66.56
2023-11-06T05:23:27.796Z,63.97
2023-11-06T05:25:55.095Z,63.34
2023-11-06T05:28:28.255Z,64.56
2023-11-06T05:30:55.709Z,63.61
2023-11-06T05:33:23.110Z,63.58
2023-11-06T05:35:50.436Z,62.62
2023-11-06T05:38:17.853Z,63.31
2023-11-06T05:40:45.174Z,62.98
2023-11-06T05:43:12.956Z,62.45
2023-11-06T05:45:40.235Z,61.27
2023-11-06T05:48:07.908Z,61.53
2023-11-06T05:50:36.341Z,61.77
2023-11-06T05:53:03.902Z,61.85
2023-11-06T05:55:31.214Z,60.62
2023-11-06T05:57:58.541Z,60.03
2023-11-06T06:00:25.834Z,60.15
2023-11-06T06:02:53.179Z,59.78
2023-11-06T06:05:20.543Z,59.83
2023-11-06T06:07:47.929Z,60.09
2023-11-06T06:10:15.278Z,59.54
2023-11-06T06:12:43.283Z,59.92
2023-11-06T06:15:15.609Z,60.04
2023-11-06T06:17:46.361Z,60.28
2023-11-06T06:20:14.199Z,60.91
2023-11-06T06:22:41.932Z,60.77
2023-11-06T06:25:09.707Z,61.59
2023-11-06T06:27:40.162Z,60.92
2023-11-06T06:30:08.521Z,61.08
2023-11-06T06:32:36.042Z,61.90
2023-11-06T06:35:06.284Z,62.54
2023-11-06T06:37:33.744Z,61.21
2023-11-06T06:40:02.069Z,60.36
2023-11-06T06:42:29.482Z,59.84
2023-11-06T06:44:56.911Z,59.43
2023-11-06T06:47:24.343Z,58.85
2023-11-06T06:49:52.941Z,60.01
2023-11-06T06:52:20.347Z,59.59
2023-11-06T06:54:47.757Z,60.38
2023-11-06T06:57:19.855Z,59.12
2023-11-06T06:59:47.733Z,58.74
2023-11-06T07:02:15.929Z,58.39
2023-11-06T07:04:43.466Z,57.83
2023-11-06T07:07:38.746Z,59.46
2023-11-06T07:10:06.977Z,58.52
2023-11-06T07:12:38.329Z,58.71
2023-11-06T07:15:07.740Z,58.17
2023-11-06T07:17:39.268Z,58.82
2023-11-06T07:20:07.747Z,57.60
2023-11-06T07:22:37.594Z,57.30
2023-11-06T07:25:12.483Z,57.06
2023-11-06T07:27:40.404Z,56.22
2023-11-06T07:30:09.012Z,56.59
2023-11-06T07:32:36.601Z,56.95
2023-11-06T07:35:04.588Z,56.43
2023-11-06T07:37:36.203Z,56.54
2023-11-06T07:40:23.983Z,56.02
2023-11-06T07:42:51.488Z,55.68
2023-11-06T07:45:19.995Z,54.81
2023-11-06T07:47:47.860Z,55.26
2023-11-06T07:50:18.268Z,55.50
2023-11-06T07:55:27.847Z,55.20
2023-11-06T07:57:55.348Z,54.63
2023-11-06T08:00:39.975Z,54.61
2023-11-06T08:03:14.459Z,54.05
2023-11-06T08:05:47.245Z,53.66
2023-11-06T08:08:14.751Z,54.36
2023-11-06T08:10:42.155Z,54.12
2023-11-06T08:13:09.461Z,53.49
2023-11-06T08:15:36.806Z,53.68
2023-11-06T08:18:04.390Z,53.40
2023-11-06T08:20:32.901Z,52.94
2023-11-06T08:23:00.269Z,52.92
2023-11-06T08:25:27.836Z,52.85
2023-11-06T08:27:55.730Z,52.90
2023-11-06T08:30:24.427Z,52.95
2023-11-06T08:32:51.917Z,52.85
2023-11-06T08:35:20.218Z,52.23
2023-11-06T08:37:48.784Z,52.91
2023-11-06T08:40:19.052Z,52.16
2023-11-06T08:42:46.893Z,52.95
2023-11-06T08:45:15.103Z,53.02
2023-11-06T08:47:45.839Z,52.68
2023-11-06T08:50:13.659Z,52.13
2023-11-06T08:53:00.051Z,51.89
2023-11-06T08:55:27.628Z,51.65
2023-11-06T08:57:55.571Z,51.93
2023-11-06T09:00:23.055Z,51.87
2023-11-06T09:03:00.801Z,52.21
2023-11-06T09:05:37.557Z,51.24
2023-11-06T09:08:05.266Z,52.00
2023-11-06T09:10:32.645Z,51.37
2023-11-06T09:13:00.404Z,52.15
2023-11-06T09:15:28.768Z,52.40
2023-11-06T09:17:56.485Z,51.83
2023-11-06T09:23:22.666Z,52.15
2023-11-06T09:28:41.337Z,52.04
2023-11-06T09:31:28.875Z,51.97
2023-11-06T09:33:56.277Z,51.93
2023-11-06T09:36:23.656Z,51.55
2023-11-06T09:38:51.189Z,50.91
2023-11-06T09:41:18.533Z,51.41
2023-11-06T09:43:45.807Z,51.16
2023-11-06T09:47:03.415Z,51.03
2023-11-06T09:50:20.557Z,50.76
2023-11-06T09:52:51.129Z,50.79
2023-11-06T09:55:31.563Z,50.61
2023-11-06T09:57:58.994Z,50.72
2023-11-06T10:00:28.048Z,50.79
2023-11-06T10:02:57.885Z,50.51
2023-11-06T10:05:28.534Z,51.09
2023-11-06T10:08:03.036Z,50.22
2023-11-06T10:10:50.688Z,49.71
2023-11-06T10:13:19.405Z,49.41
2023-11-06T10:16:01.301Z,49.34
2023-11-06T10:18:31.151Z,48.97
2023-11-06T10:21:24.487Z,48.45
2023-11-06T10:24:36.322Z,48.70
2023-11-06T10:27:03.712Z,49.09
2023-11-06T10:29:53.009Z,49.17
2023-11-06T10:32:30.357Z,47.91
2023-11-06T10:35:12.694Z,48.66
2023-11-06T10:37:43.067Z,47.05
2023-11-06T10:40:14.414Z,47.29
2023-11-06T10:42:44.328Z,46.97
2023-11-06T10:45:19.401Z,46.35
2023-11-06T10:47:53.971Z,46.42
2023-11-06T10:50:22.340Z,45.43
2023-11-06T10:52:55.069Z,44.97
2023-11-06T10:55:31.752Z,45.24
2023-11-06T10:58:01.501Z,45.04
2023-11-06T11:00:29.083Z,44.76
2023-11-06T11:02:57.307Z,44.96
2023-11-06T11:05:32.914Z,45.43
2023-11-06T11:08:03.170Z,44.64
2023-11-06T11:10:30.872Z,44.06
2023-11-06T11:13:00.445Z,45.20
2023-11-06T11:15:29.651Z,43.86
2023-11-06T11:18:01.162Z,43.73
2023-11-06T11:20:29.025Z,43.73
2023-11-06T11:23:09.158Z,42.59
2023-11-06T11:25:59.353Z,42.75
2023-11-06T11:28:29.292Z,43.26
2023-11-06T11:30:57.006Z,42.92
2023-11-06T11:33:57.160Z,43.39
2023-11-06T11:36:38.178Z,43.69
2023-11-06T11:39:18.126Z,43.04
2023-11-06T11:42:00.415Z,42.63
2023-11-06T11:44:28.880Z,43.53
2023-11-06T11:46:57.373Z,43.76
2023-11-06T11:49:39.262Z,43.78
2023-11-06T11:52:07.344Z,44.15
2023-11-06T11:54:38.330Z,43.51
2023-11-06T11:57:07.081Z,43.04
2023-11-06T11:59:44.471Z,43.64
2023-11-06T12:02:24.957Z,43.95
2023-11-06T12:05:21.549Z,43.77
2023-11-06T12:08:00.516Z,46.50
2023-11-06T12:10:31.446Z,45.06
2023-11-06T12:13:19.516Z,44.28
2023-11-06T12:19:27.013Z,44.58
2023-11-06T12:23:01.419Z,44.29
2023-11-06T12:25:42.497Z,43.55
2023-11-06T12:28:24.873Z,43.64
2023-11-06T12:31:14.902Z,44.04
2023-11-06T12:34:40.198Z,43.60
2023-11-06T12:37:14.453Z,43.55
2023-11-06T12:39:42.182Z,43.57
2023-11-06T12:42:10.042Z,43.94
2023-11-06T12:45:12.784Z,44.18
2023-11-06T12:47:46.359Z,44.43
2023-11-06T12:50:19.250Z,44.58
2023-11-06T12:52:49.809Z,45.42
2023-11-06T12:55:24.291Z,44.51
2023-11-06T12:58:31.962Z,44.30
2023-11-06T13:01:42.852Z,44.15
2023-11-06T13:08:02.204Z,44.86
2023-11-06T13:10:30.274Z,44.59
2023-11-06T13:12:58.705Z,45.21
2023-11-06T13:15:27.759Z,45.49
2023-11-06T13:18:04.149Z,45.96
2023-11-06T13:20:55.149Z,46.27
2023-11-06T13:23:23.206Z,45.96
2023-11-06T13:25:59.863Z,46.12
2023-11-06T13:28:41.374Z,45.92
2023-11-06T13:31:12.366Z,45.59
2023-11-06T13:33:56.756Z,45.99
2023-11-06T13:36:29.587Z,48.30
2023-11-06T13:38:59.236Z,49.00
2023-11-06T13:41:28.643Z,48.03
2023-11-06T13:43:59.735Z,50.84
2023-11-06T13:46:30.176Z,47.65
2023-11-06T13:48:58.090Z,47.31
2023-11-06T13:51:27.803Z,47.47
2023-11-06T13:54:01.016Z,47.86
2023-11-06T13:56:38.412Z,47.78
2023-11-06T13:59:11.709Z,46.79
2023-11-06T14:01:49.722Z,47.92
2023-11-06T14:04:18.641Z,48.05
2023-11-06T14:06:49.349Z,49.20
2023-11-06T14:09:35.833Z,50.01
2023-11-06T14:12:06.151Z,51.94
2023-11-06T14:14:34.066Z,52.75
2023-11-06T14:17:01.811Z,52.81
2023-11-06T14:19:30.707Z,51.25
2023-11-06T14:21:58.145Z,51.38
2023-11-06T14:24:25.509Z,52.18
2023-11-06T14:26:53.588Z,53.35
2023-11-06T14:29:22.400Z,55.50
2023-11-06T14:31:51.008Z,57.40
2023-11-06T14:34:18.528Z,59.07
2023-11-06T14:36:46.139Z,60.03
2023-11-06T14:39:15.925Z,61.90
2023-11-06T14:41:43.762Z,62.88
2023-11-06T14:44:14.313Z,64.85
2023-11-06T14:46:41.764Z,67.25
2023-11-06T14:49:39.951Z,67.91
2023-11-06T14:52:17.736Z,68.46
2023-11-06T14:58:52.469Z,70.96
2023-11-06T15:01:56.429Z,72.81
2023-11-06T15:04:29.468Z,72.19
2023-11-06T15:06:57.043Z,73.93
2023-11-06T15:09:25.007Z,73.51
2023-11-06T15:11:52.302Z,72.85
2023-11-06T15:14:29.615Z,72.45
2023-11-06T15:17:30.656Z,72.41
2023-11-06T15:19:57.983Z,73.67
2023-11-06T15:22:29.485Z,73.15
2023-11-06T15:25:00.194Z,74.00
2023-11-06T15:27:30.686Z,76.92
2023-11-06T15:30:00.709Z,76.90
2023-11-06T15:32:28.659Z,75.37
2023-11-06T15:34:56.008Z,77.21
2023-11-06T15:37:23.385Z,78.08
2023-11-06T15:39:53.713Z,74.79
2023-11-06T15:42:22.820Z,73.66
2023-11-06T15:44:50.299Z,74.73
2023-11-06T15:47:17.660Z,76.02
2023-11-06T15:49:52.105Z,76.62
2023-11-06T15:52:20.161Z,78.42
2023-11-06T15:54:47.549Z,78.76
2023-11-06T15:57:15.827Z,79.69
2023-11-06T15:59:43.189Z,80.55
2023-11-06T16:02:10.666Z,81.81
2023-11-06T16:04:38.011Z,82.48
2023-11-06T16:07:06.074Z,81.31
2023-11-06T16:09:34.450Z,79.23
2023-11-06T16:12:01.839Z,81.90
2023-11-06T16:14:29.204Z,83.46
2023-11-06T16:16:57.828Z,83.82
2023-11-06T16:19:25.156Z,83.64
2023-11-06T16:21:52.415Z,82.52
2023-11-06T16:24:19.757Z,82.70
2023-11-06T16:26:47.495Z,81.31
2023-11-06T16:29:14.958Z,82.99
2023-11-06T16:31:46.305Z,82.91
2023-11-06T16:34:14.796Z,82.77
2023-11-06T16:36:45.250Z,83.32
2023-11-06T16:39:20.542Z,81.90
2023-11-06T16:41:48.203Z,80.91
2023-11-06T16:44:23.683Z,82.01
2023-11-06T16:46:59.824Z,83.35
2023-11-06T16:52:15.206Z,83.17
2023-11-06T16:54:46.887Z,83.13
2023-11-06T16:57:16.314Z,84.40
2023-11-06T16:59:44.040Z,85.51
2023-11-06T17:02:11.784Z,84.27
2023-11-06T17:04:39.139Z,81.62
2023-11-06T17:07:06.491Z,81.38
2023-11-06T17:09:33.750Z,78.74
2023-11-06T17:12:01.253Z,75.32
2023-11-06T17:14:28.768Z,74.63
2023-11-06T17:16:56.267Z,74.68
2023-11-06T17:19:23.667Z,73.57
2023-11-06T17:21:51.830Z,72.81
2023-11-06T17:24:19.309Z,72.59
2023-11-06T17:26:46.735Z,71.91
2023-11-06T17:29:14.112Z,72.08
2023-11-06T17:31:42.755Z,72.11
2023-11-06T17:34:10.645Z,71.89
2023-11-06T17:36:39.352Z,72.65
2023-11-06T17:39:06.648Z,73.00
2023-11-06T17:41:34.018Z,72.29
2023-11-06T17:44:03.563Z,72.70
2023-11-06T17:46:30.937Z,72.25
2023-11-06T17:48:58.381Z,72.42
2023-11-06T17:51:26.020Z,72.28
2023-11-06T17:53:53.376Z,71.80
2023-11-06T17:56:20.995Z,72.46
2023-11-06T17:58:48.500Z,72.73
2023-11-06T18:01:15.808Z,72.74
2023-11-06T18:03:43.298Z,72.60
2023-11-06T18:06:10.738Z,73.19
2023-11-06T18:08:38.425Z,73.70
2023-11-06T18:11:06.246Z,75.17
2023-11-06T18:13:33.570Z,75.12
2023-11-06T18:16:00.922Z,75.80
2023-11-06T18:18:31.599Z,75.69
2023-11-06T18:21:01.426Z,77.04
2023-11-06T18:23:30.568Z,77.38
2023-11-06T18:25:57.994Z,77.03
2023-11-06T18:28:27.387Z,78.13
2023-11-06T18:30:54.884Z,78.49
2023-11-06T18:33:23.592Z,79.86
2023-11-06T18:35:51.098Z,81.13
2023-11-06T18:38:18.504Z,81.01
2023-11-06T18:40:50.314Z,82.07
2023-11-06T18:43:18.296Z,82.33
2023-11-06T18:45:45.616Z,83.04
2023-11-06T18:48:12.967Z,81.38
2023-11-06T18:50:40.488Z,82.32
2023-11-06T18:53:10.534Z,81.78
2023-11-06T18:55:38.532Z,82.41
2023-11-06T18:58:07.904Z,83.42
2023-11-06T19:00:35.858Z,82.79
2023-11-06T19:03:03.430Z,82.81
2023-11-06T19:05:30.983Z,83.26
2023-11-06T19:07:58.462Z,83.78
2023-11-06T19:10:25.857Z,84.48
2023-11-06T19:12:53.573Z,84.49
2023-11-06T19:15:21.034Z,85.68
2023-11-06T19:17:48.727Z,86.01
2023-11-06T19:20:17.820Z,86.13
2023-11-06T19:22:45.958Z,84.69
2023-11-06T19:25:13.530Z,84.52
2023-11-06T19:27:41.451Z,83.20
2023-11-06T19:30:13.031Z,85.15
2023-11-06T19:32:41.166Z,80.99
2023-11-06T19:35:12.719Z,81.44
2023-11-06T19:37:41.323Z,83.16
2023-11-06T19:40:09.562Z,80.62
2023-11-06T19:42:36.869Z,80.00
2023-11-06T19:45:04.602Z,79.88
2023-11-06T19:47:32.033Z,80.63
2023-11-06T19:49:59.725Z,78.90
2023-11-06T19:52:27.014Z,80.55
2023-11-06T19:54:54.393Z,81.94
2023-11-06T19:57:21.699Z,83.26
2023-11-06T19:59:58.081Z,83.92
2023-11-06T20:02:35.788Z,83.60
2023-11-06T20:05:03.904Z,83.93
2023-11-06T20:07:31.273Z,84.78
2023-11-06T20:09:58.916Z,84.90
2023-11-06T20:12:26.250Z,85.49
2023-11-06T20:14:53.890Z,84.44
2023-11-06T20:17:21.416Z,84.29
2023-11-06T20:19:48.823Z,85.02
2023-11-06T20:22:17.325Z,79.96
2023-11-06T20:24:47.761Z,83.09
2023-11-06T20:27:15.198Z,83.17
2023-11-06T20:29:42.527Z,82.20
2023-11-06T20:32:09.962Z,81.54
2023-11-06T20:34:37.289Z,81.40
2023-11-06T20:37:04.844Z,82.17
2023-11-06T20:39:32.893Z,82.17
2023-11-06T20:42:00.266Z,82.21
2023-11-06T20:44:27.682Z,83.23
2023-11-06T20:46:55.214Z,83.70
2023-11-06T20:49:22.622Z,84.65
2023-11-06T20:51:49.979Z,84.31
2023-11-06T20:54:17.410Z,84.04
2023-11-06T20:56:45.917Z,86.30
2023-11-06T20:59:13.447Z,86.45
2023-11-06T21:01:41.760Z,87.54
2023-11-06T21:04:09.304Z,87.42
2023-11-06T21:06:37.835Z,87.82
2023-11-06T21:09:06.032Z,88.11
2023-11-06T21:11:33.734Z,89.09
2023-11-06T21:14:01.052Z,89.10
2023-11-06T21:16:33.843Z,89.69
2023-11-06T21:19:01.615Z,90.28
2023-11-06T21:21:28.972Z,90.32
2023-11-06T21:23:57.105Z,91.16
2023-11-06T21:26:24.880Z,90.60
2023-11-06T21:28:52.344Z,91.31
2023-11-06T21:31:19.921Z,90.79
2023-11-06T21:33:48.361Z,89.49
2023-11-06T21:36:16.208Z,90.78
2023-11-06T21:38:43.924Z,91.00
2023-11-06T21:41:11.276Z,91.09
2023-11-06T21:43:39.127Z,91.99
2023-11-06T21:46:06.823Z,91.87
2023-11-06T21:48:35.516Z,92.03
2023-11-06T21:51:02.991Z,92.40
2023-11-06T21:53:30.433Z,93.18
2023-11-06T21:55:57.738Z,92.58
2023-11-06T21:58:29.968Z,93.12
2023-11-06T22:00:58.264Z,92.64
2023-11-06T22:03:25.836Z,93.33
2023-11-06T22:05:53.474Z,92.97
2023-11-06T22:08:20.832Z,92.95
2023-11-06T22:10:48.113Z,93.50
2023-11-06T22:13:15.481Z,94.65
2023-11-06T22:15:42.755Z,94.89
2023-11-06T22:18:10.102Z,95.37
2023-11-06T22:20:37.526Z,94.80
2023-11-06T22:23:05.225Z,95.46
2023-11-06T22:25:32.774Z,95.54
2023-11-06T22:28:00.078Z,95.29
2023-11-06T22:30:27.576Z,95.28
2023-11-06T22:32:55.042Z,95.06
2023-11-06T22:35:22.417Z,94.88
2023-11-06T22:37:50.019Z,95.35
2023-11-06T22:40:17.532Z,95.92
2023-11-06T22:42:44.942Z,95.33
2023-11-06T22:45:12.480Z,95.73
2023-11-06T22:47:40.712Z,95.60
2023-11-06T22:50:11.175Z,95.19
2023-11-06T22:52:39.547Z,94.93
2023-11-06T22:55:07.937Z,94.55
2023-11-06T22:57:35.319Z,94.67
2023-11-06T23:00:04.256Z,94.87
2023-11-06T23:02:31.784Z,94.55
2023-11-06T23:04:59.223Z,95.80
2023-11-06T23:07:26.599Z,96.15
2023-11-06T23:09:53.921Z,97.08
2023-11-06T23:12:21.188Z,98.28
2023-11-06T23:14:48.532Z,98.59
2023-11-06T23:17:15.833Z,99.14
2023-11-06T23:19:43.649Z,99.20
2023-11-06T23:22:10.984Z,98.82
2023-11-06T23:24:38.285Z,98.06
2023-11-06T23:27:08.318Z,98.07
2023-11-06T23:29:35.811Z,96.86
2023-11-06T23:32:03.683Z,96.09
2023-11-06T23:34:31.039Z,95.67
2023-11-06T23:36:58.417Z,95.63
2023-11-06T23:39:26.133Z,96.20
2023-11-06T23:41:54.256Z,95.13
2023-11-06T23:44:21.827Z,94.88
2023-11-06T23:46:49.185Z,95.96
2023-11-06T23:49:16.530Z,95.91
2023-11-06T23:51:44.171Z,96.86
2023-11-06T23:54:12.087Z,96.99
2023-11-06T23:56:39.447Z,98.01
2023-11-06T23:59:06.859Z,98.82
